Airfield :
LOGIN :

Register | Disclaimer

   EN    FR    IT 

 










Legend :    VFR   Marginal VFR   IFR   Intensive IFR   Very Intensive IFR
Visi :
Ceiling :
>= 8 km
>= 3000ft
5 to 8 km
1000 to 3000 ft
1500m to 5 km
500 to 1000 ft
800 to 1500m
200 to 500 ft
< 800m
< 200 ft
Symbols :   Thunderstorms  Fog  Heavy snow  Heavy precipitations  Wind > 20 kt
SIGMETs :     Misc.  Thunderstorms  Icing  Turbulence  Mountain Waves  Volcanic Ashes






- Airport Elevation : 1682 ft
- IATA code : VIT


LEVT - Vitoria Gasteiz

CURRENT METAR :
  • 091800Z 33006G16KT 270V360 9999 SCT020 BKN045 08/05 Q1031

EXPIRED METARs :
  • 091730Z 30005KT 270V340 7000 -RA FEW012 BKN022 08/06 Q1031
  • 091700Z 32010KT 6000 -RA FEW012 BKN026 08/06 Q1030
  • 091630Z 30008KT 260V350 9999 FEW015 BKN027 08/06 Q1030
  • 091600Z 32011KT 280V010 9999 -RA SCT012 BKN025 08/06 Q1030
  • 091530Z 33011KT 9000 -RA SCT010 BKN021 08/06 Q1030

TAF TAF LEVT
Valid from the 09 at 18:00 until the 10 at 18:00 UTC


091700Z 0918/1018 31010KT 9999 SCT025 BKN030 TX11/1014Z TNM01/1006Z
BECMG 0918/0922 VRB03KT
TEMPO 0918/1012 3000 BR
TEMPO 1000/1012 0350 FG FZFG VV001
TEMPO 1000/1012 0150 FG FZFG VV001



MET'MAP, your aeronautical weather chart ! - Copyright ORBIFLY December 2007 - Disclaimer

ORBIFLY MET'MAP TEAM :

Programming & Development : Alexandra Zaïnal
Concept & original design : Baudouin d'Aumeries
Assistance for programming : Marc-Olivier Méhu
Technical & hardware support : Manuel Goepfert

Contact : metmap@orbifly.com




SOURCES & CREDITS :

   NOAA